MAPA DE AEROPUERTO

INFORMACIÓN METAR y TAF

METAR FOR LEVD
ADDS - METARS form results

(0340 UTC 07 May 2021)
Data provider http://aviationweather.gov/metar/data/
 
METAR text: LEVD 070330Z AUTO 27007KT CAVOK 09/07 Q1020
Conditions at: LEVD (VALLADOLID(MIL/C, ES) observed 0330 UTC 07 May 2021
Temperature: 9.0°C (48°F)
Dewpoint: 7.0°C (45°F) [RH = 87%]
Pressure (altimeter): 30.12 inches Hg (1020.0 mb)
Winds: from the W (270 degrees) at 8 MPH (7 knots; 3.6 m/s)
Visibility: 6 or more miles (10+ km)
Ceiling: ceiling and visibility are OK
Clouds: unknown
Weather: no significant weather observed at this time

METAR text: LEVD 070300Z AUTO 27006KT CAVOK 09/07 Q1020
Conditions at: LEVD (VALLADOLID(MIL/C, ES) observed 0300 UTC 07 May 2021
Temperature: 9.0°C (48°F)
Dewpoint: 7.0°C (45°F) [RH = 87%]
Pressure (altimeter): 30.12 inches Hg (1020.0 mb)
Winds: from the W (270 degrees) at 7 MPH (6 knots; 3.1 m/s)
Visibility: 6 or more miles (10+ km)
Ceiling: ceiling and visibility are OK
Clouds: unknown
Weather: no significant weather observed at this time

Forecast for: LEVD (VALLADOLID(MIL/C, ES)
Text: TAF LEVD 070200Z 0703/0803 24005KT CAVOK TX25/0716Z TN07/0705Z
Forecast period: 0300 UTC 07 May 2021 to 0300 UTC 08 May 2021
Forecast type: FROM: standard forecast or significant change
Winds: from the WSW (240 degrees) at 6 MPH (5 knots; 2.6 m/s)
Visibility: 6 or more miles (10+ km)
Ceiling: unknown
Clouds: missing
Weather: no significant weather forecast for this period